Time;durP1;ratioP1;P1;durP2;ratioP2;P2;SDS_P1;SDS_P2;PMS_P1;PMS_P2;Temp;Humidity;BMP_temperature;BMP_pressure;BME280_temperature;BME280_humidity;BME280_pressure;Samples;Min_cycle;Max_cycle;Signal;HPM_P1;HPM_P2
2024/03/02 00:00:50;;;;;;;18.23;8.40;;;;;;;2.87;82.33;101511.28;5052098;28;20964;-70
2024/03/02 00:03:17;;;;;;;15.27;8.03;;;;;;;2.86;82.12;101513.00;5052311;28;20919;-71
2024/03/02 00:05:50;;;;;;;15.07;8.37;;;;;;;2.86;82.24;101520.75;5051936;28;20443;-70
2024/03/02 00:08:25;;;;;;;18.80;8.57;;;;;;;2.86;82.43;101505.22;5052060;28;20445;-71
2024/03/02 00:10:52;;;;;;;15.87;7.83;;;;;;;2.86;82.38;101517.28;5052084;28;20501;-71
2024/03/02 00:13:22;;;;;;;17.33;8.57;;;;;;;2.86;82.28;101512.13;5052559;28;20444;-70
2024/03/02 00:15:52;;;;;;;15.53;8.20;;;;;;;2.87;82.22;101516.44;5055752;28;20866;-70
2024/03/02 00:18:21;;;;;;;15.90;8.87;;;;;;;2.87;82.20;101524.19;5055697;28;20488;-70
2024/03/02 00:20:50;;;;;;;18.13;8.73;;;;;;;2.87;82.38;101519.94;5055726;28;20472;-71
2024/03/02 00:23:18;;;;;;;16.37;9.70;;;;;;;2.87;82.37;101517.34;5055584;28;20446;-70
2024/03/02 00:25:48;;;;;;;20.43;9.03;;;;;;;2.84;82.19;101512.06;5055533;28;20440;-71
2024/03/02 00:28:17;;;;;;;15.10;7.63;;;;;;;2.85;82.29;101518.16;5055746;28;20875;-70
2024/03/02 00:30:57;;;;;;;12.27;7.47;;;;;;;2.86;82.26;101519.88;5055472;28;20939;-71
2024/03/02 00:33:27;;;;;;;16.90;9.07;;;;;;;2.85;82.35;101521.59;5055440;28;20433;-71
2024/03/02 00:35:56;;;;;;;17.70;9.13;;;;;;;2.85;82.27;101512.97;5055459;28;20493;-71
2024/03/02 00:38:23;;;;;;;13.80;8.50;;;;;;;2.86;82.28;101522.47;5055459;28;20477;-71
2024/03/02 00:40:50;;;;;;;19.77;8.53;;;;;;;2.85;82.07;101513.84;5055386;28;20455;-70
2024/03/02 00:43:44;;;;;;;15.53;8.53;;;;;;;2.86;82.24;101514.72;5055283;28;20444;-71
2024/03/02 00:46:13;;;;;;;15.20;7.93;;;;;;;2.83;82.25;101511.22;5055231;28;20456;-71
2024/03/02 00:48:43;;;;;;;17.67;9.47;;;;;;;2.86;82.19;101514.72;5055177;28;20443;-70
2024/03/02 00:51:12;;;;;;;19.67;7.90;;;;;;;2.83;81.96;101511.22;5055537;28;20533;-69
2024/03/02 00:53:39;;;;;;;14.17;7.97;;;;;;;2.85;82.09;101512.97;5055287;28;20433;-68
2024/03/02 00:56:10;;;;;;;15.70;8.47;;;;;;;2.82;82.13;101514.66;5055320;28;20474;-69
2024/03/02 00:58:37;;;;;;;16.93;8.83;;;;;;;2.82;81.99;101506.88;5054898;28;20474;-68
2024/03/02 01:01:04;;;;;;;16.97;9.00;;;;;;;2.81;82.22;101506.84;5054962;28;20924;-72
2024/03/02 01:03:32;;;;;;;16.93;8.90;;;;;;;2.80;82.07;101500.81;5054540;28;20440;-71
2024/03/02 01:05:59;;;;;;;15.77;8.97;;;;;;;2.80;81.91;101510.28;5054906;28;20455;-71
2024/03/02 01:08:27;;;;;;;16.33;8.63;;;;;;;2.80;82.13;101505.97;5054765;28;20447;-71
2024/03/02 01:10:54;;;;;;;16.90;9.53;;;;;;;2.80;82.15;101505.97;5054755;28;20444;-71
2024/03/02 01:13:22;;;;;;;14.40;8.17;;;;;;;2.80;82.05;101515.44;5054646;28;20448;-71
2024/03/02 01:15:49;;;;;;;17.13;8.53;;;;;;;2.79;82.00;101509.41;5054844;28;20787;-72
2024/03/02 01:18:16;;;;;;;15.40;8.73;;;;;;;2.79;82.07;101512.00;5054501;28;20977;-71
2024/03/02 01:20:43;;;;;;;19.47;9.93;;;;;;;2.79;82.22;101512.00;5054518;28;20933;-71
2024/03/02 01:23:09;;;;;;;18.50;9.67;;;;;;;2.79;82.13;101514.59;5054491;28;20975;-71
2024/03/02 01:25:38;;;;;;;19.33;10.13;;;;;;;2.79;82.02;101517.16;5053733;28;20440;-72
2024/03/02 01:28:05;;;;;;;16.20;9.10;;;;;;;2.80;81.92;101525.78;5054351;28;20445;-72
2024/03/02 01:30:32;;;;;;;15.17;9.33;;;;;;;2.79;82.25;101517.16;5054345;28;20440;-71
2024/03/02 01:33:00;;;;;;;16.60;9.47;;;;;;;2.80;82.10;101529.25;5054325;28;20442;-71
2024/03/02 01:35:27;;;;;;;16.57;9.40;;;;;;;2.79;82.17;101527.50;5054233;28;20436;-71
2024/03/02 01:37:55;;;;;;;18.27;9.03;;;;;;;2.80;82.18;101523.19;5054268;28;20483;-71
2024/03/02 01:40:23;;;;;;;18.73;10.00;;;;;;;2.79;82.14;101519.75;5054225;28;20444;-71
2024/03/02 01:42:51;;;;;;;19.27;9.87;;;;;;;2.79;82.05;101522.34;5054290;28;20446;-71
2024/03/02 01:45:19;;;;;;;17.37;9.73;;;;;;;2.79;82.16;101519.75;5054218;28;20437;-71
2024/03/02 01:47:45;;;;;;;17.40;9.17;;;;;;;2.78;82.15;101520.56;5054149;28;20447;-71
2024/03/02 01:50:13;;;;;;;21.70;10.67;;;;;;;2.77;82.29;101516.25;5053991;28;20436;-71
2024/03/02 01:52:40;;;;;;;16.70;9.60;;;;;;;2.77;82.22;101515.38;5053849;28;20937;-72
2024/03/02 01:55:08;;;;;;;18.37;9.37;;;;;;;2.76;82.05;101513.66;5053891;28;20469;-71
2024/03/02 01:57:35;;;;;;;19.00;10.70;;;;;;;2.75;82.18;101515.34;5053997;28;20480;-72
2024/03/02 02:00:04;;;;;;;20.67;10.17;;;;;;;2.77;82.07;101520.56;5053821;28;20535;-71
2024/03/02 02:02:32;;;;;;;19.50;10.50;;;;;;;2.74;82.04;101516.19;5054009;28;20439;-78
2024/03/02 02:04:59;;;;;;;17.93;9.27;;;;;;;2.76;82.22;101517.09;5053925;28;20449;-78
2024/03/02 02:07:26;;;;;;;19.47;10.80;;;;;;;2.77;82.29;101518.84;5053793;28;20941;-78
2024/03/02 02:09:52;;;;;;;21.70;10.10;;;;;;;2.77;82.26;101516.25;5053924;28;20447;-79
2024/03/02 02:12:19;;;;;;;18.17;10.37;;;;;;;2.77;82.31;101516.25;5053862;28;20464;-79
2024/03/02 02:14:50;;;;;;;20.83;10.20;;;;;;;2.77;82.05;101521.41;5053976;28;20444;-80
2024/03/02 02:17:18;;;;;;;19.90;10.87;;;;;;;2.78;82.28;101530.03;5053970;28;20948;-79
2024/03/02 02:19:45;;;;;;;18.87;10.23;;;;;;;2.77;82.03;101529.19;5053752;28;20530;-80
2024/03/02 02:22:13;;;;;;;22.37;11.87;;;;;;;2.77;82.14;101518.84;5053998;28;20447;-79
2024/03/02 02:24:41;;;;;;;16.80;9.20;;;;;;;2.77;82.22;101531.75;5053721;28;20434;-79
2024/03/02 02:27:08;;;;;;;22.13;10.73;;;;;;;2.78;82.17;101519.69;5053915;28;20459;-79
2024/03/02 02:29:35;;;;;;;16.77;9.83;;;;;;;2.79;82.14;101508.56;5053731;28;20464;-80
2024/03/02 02:32:02;;;;;;;17.73;9.90;;;;;;;2.75;81.95;101510.19;5053718;28;20448;-80
2024/03/02 02:34:29;;;;;;;22.30;11.50;;;;;;;2.79;81.94;101513.72;5053234;28;20451;-80
2024/03/02 02:36:56;;;;;;;20.37;10.27;;;;;;;2.77;82.06;101516.25;5053153;28;20824;-79
2024/03/02 02:39:24;;;;;;;19.80;10.33;;;;;;;2.79;81.91;101509.41;5053073;28;20447;-79
2024/03/02 02:41:51;;;;;;;22.93;10.20;;;;;;;2.78;81.87;101510.22;5053277;28;20450;-80
2024/03/02 02:44:18;;;;;;;18.00;10.07;;;;;;;2.77;81.92;101507.63;5053722;28;20441;-79
2024/03/02 02:46:45;;;;;;;24.10;11.27;;;;;;;2.77;81.92;101511.09;5053620;28;20440;-79
2024/03/02 02:49:12;;;;;;;16.33;9.83;;;;;;;2.77;81.95;101511.09;5053331;28;20553;-79
2024/03/02 02:51:39;;;;;;;19.97;10.80;;;;;;;2.77;82.09;101510.22;5053418;28;20433;-79
2024/03/02 02:54:06;;;;;;;19.47;10.20;;;;;;;2.75;82.11;101506.72;5053257;28;20924;-80
2024/03/02 02:56:34;;;;;;;21.23;9.93;;;;;;;2.76;82.19;101516.25;5052888;28;20481;-80
2024/03/02 02:59:01;;;;;;;19.70;10.07;;;;;;;2.75;82.12;101512.75;5053109;28;20882;-78
2024/03/02 03:01:28;;;;;;;18.30;10.13;;;;;;;2.75;82.31;101520.50;5053209;28;20438;-79
2024/03/02 03:03:55;;;;;;;18.93;10.13;;;;;;;2.74;82.02;101513.59;5052620;28;20987;-80
2024/03/02 03:06:21;;;;;;;18.33;10.93;;;;;;;2.76;81.90;101516.25;5052985;28;20436;-79
2024/03/02 03:08:48;;;;;;;20.07;9.80;;;;;;;2.74;82.02;101515.31;5053121;28;20448;-79
2024/03/02 03:11:15;;;;;;;22.33;12.17;;;;;;;2.73;82.11;101514.47;5053122;28;20518;-78
2024/03/02 03:13:43;;;;;;;18.40;10.03;;;;;;;2.74;81.89;101508.44;5052833;28;20435;-78
2024/03/02 03:16:10;;;;;;;17.23;10.40;;;;;;;2.73;81.95;101517.03;5052836;28;20941;-78
2024/03/02 03:18:38;;;;;;;22.13;12.57;;;;;;;2.69;82.02;101504.00;5052839;28;20840;-79
2024/03/02 03:21:05;;;;;;;22.20;11.13;;;;;;;2.72;81.96;101507.53;5052683;28;20474;-71
2024/03/02 03:23:32;;;;;;;19.40;10.10;;;;;;;2.73;82.13;101514.47;5052427;28;20556;-72
2024/03/02 03:25:58;;;;;;;25.07;10.60;;;;;;;2.72;82.04;101511.81;5052510;28;20437;-71
2024/03/02 03:28:25;;;;;;;21.23;11.43;;;;;;;2.72;82.12;101515.28;5052889;28;20447;-71
2024/03/02 03:30:53;;;;;;;21.67;10.90;;;;;;;2.71;82.02;101508.38;5052616;28;20778;-71
2024/03/02 03:33:20;;;;;;;18.37;10.17;;;;;;;2.70;81.92;101508.34;5052619;28;20437;-71
2024/03/02 03:35:48;;;;;;;19.17;9.60;;;;;;;2.70;82.00;101513.50;5052517;28;20435;-71
2024/03/02 03:38:14;;;;;;;20.10;10.53;;;;;;;2.69;82.03;101507.47;5052354;28;21003;-71
2024/03/02 03:40:42;;;;;;;19.33;9.93;;;;;;;2.69;82.04;101510.06;5052396;28;20796;-71
2024/03/02 03:43:08;;;;;;;17.70;10.43;;;;;;;2.70;81.97;101513.50;5052282;28;20936;-71
2024/03/02 03:45:35;;;;;;;17.00;9.63;;;;;;;2.69;81.81;101517.78;5052360;28;20451;-71
2024/03/02 03:48:04;;;;;;;21.60;10.40;;;;;;;2.70;81.92;101521.25;5052234;28;20445;-71
2024/03/02 03:50:31;;;;;;;20.80;10.53;;;;;;;2.70;81.96;101523.84;5056279;28;20439;-72
2024/03/02 03:52:57;;;;;;;20.73;11.23;;;;;;;2.68;82.02;101520.38;5056218;28;20443;-70
2024/03/02 03:55:24;;;;;;;22.63;10.50;;;;;;;2.67;82.01;101519.50;5056163;28;20984;-71
2024/03/02 03:57:51;;;;;;;21.00;9.93;;;;;;;2.66;81.97;101519.44;5056057;28;20486;-71
2024/03/02 04:00:18;;;;;;;18.33;10.73;;;;;;;2.65;81.85;101517.72;5056028;28;20438;-71
2024/03/02 04:02:45;;;;;;;17.33;8.83;;;;;;;2.64;81.78;101521.97;5056035;28;20430;-71
2024/03/02 04:05:14;;;;;;;22.50;11.07;;;;;;;2.64;82.01;101516.81;5056016;28;20431;-71
2024/03/02 04:07:40;;;;;;;19.00;10.63;;;;;;;2.64;81.97;101513.38;5056158;28;20431;-71
2024/03/02 04:10:09;;;;;;;21.00;10.97;;;;;;;2.63;81.90;101522.84;5056036;28;20854;-71
2024/03/02 04:12:36;;;;;;;16.60;8.10;;;;;;;2.64;81.96;101518.53;5055892;28;20452;-71
2024/03/02 04:15:06;;;;;;;21.87;10.87;;;;;;;2.63;81.90;101511.63;5055972;28;20435;-71
2024/03/02 04:17:35;;;;;;;21.23;10.93;;;;;;;2.62;82.33;101520.25;5055671;28;20505;-71
2024/03/02 04:20:04;;;;;;;20.37;10.20;;;;;;;2.61;82.07;101519.34;5055992;28;20581;-71
2024/03/02 04:22:35;;;;;;;16.43;10.13;;;;;;;2.61;81.98;101524.50;5055727;28;20972;-69
2024/03/02 04:25:04;;;;;;;19.77;9.53;;;;;;;2.60;82.08;101522.78;5055705;28;20859;-68
2024/03/02 04:27:31;;;;;;;18.87;10.57;;;;;;;2.59;81.92;101524.50;5055604;28;20483;-69
2024/03/02 04:29:59;;;;;;;11.23;6.37;;;;;;;2.59;81.95;101521.03;5055938;28;20804;-69
2024/03/02 04:32:26;;;;;;;19.17;9.57;;;;;;;2.58;81.88;101524.44;5055528;28;20473;-72
2024/03/02 04:34:53;;;;;;;20.67;10.63;;;;;;;2.57;81.91;101527.88;5055455;28;20444;-71
2024/03/02 04:37:20;;;;;;;16.70;9.03;;;;;;;2.57;81.89;101522.72;5055612;28;20451;-72
2024/03/02 04:39:48;;;;;;;21.70;9.13;;;;;;;2.56;81.90;101536.47;5055254;28;20480;-72
2024/03/02 04:42:15;;;;;;;21.67;10.27;;;;;;;2.55;81.91;101529.53;5055424;28;20443;-72
2024/03/02 04:44:42;;;;;;;17.53;9.70;;;;;;;2.56;81.88;101536.47;5055205;28;20957;-72
2024/03/02 04:47:09;;;;;;;17.83;8.53;;;;;;;2.55;81.92;101537.28;5055339;28;20445;-71
2024/03/02 04:49:36;;;;;;;18.43;8.93;;;;;;;2.55;81.93;101533.00;5055110;28;20455;-71
2024/03/02 04:52:03;;;;;;;17.03;9.13;;;;;;;2.54;81.75;101538.16;5055179;28;20437;-71
2024/03/02 04:54:30;;;;;;;18.20;10.00;;;;;;;2.46;81.60;101526.75;5055210;28;20438;-71
2024/03/02 04:56:58;;;;;;;19.20;9.37;;;;;;;2.53;81.66;101526.03;5055035;28;20433;-71
2024/03/02 04:59:26;;;;;;;22.10;10.53;;;;;;;2.52;81.71;101529.47;5047890;28;21018;-71
2024/03/02 05:01:53;;;;;;;21.60;9.87;;;;;;;2.51;81.75;101538.06;5039827;28;20442;-71
2024/03/02 05:04:20;;;;;;;22.17;10.00;;;;;;;2.50;81.59;101538.91;5054906;28;20450;-72
2024/03/02 05:06:52;;;;;;;22.30;10.10;;;;;;;2.49;81.96;101540.59;5054967;28;20915;-71
2024/03/02 05:09:19;;;;;;;16.60;9.23;;;;;;;2.50;81.62;101538.91;5054791;28;20929;-71
2024/03/02 05:12:11;;;;;;;20.43;10.00;;;;;;;2.50;81.62;101549.22;5055224;28;20814;-71
2024/03/02 05:14:38;;;;;;;19.70;9.67;;;;;;;2.48;81.52;101548.34;5054864;28;20434;-71
2024/03/02 05:17:05;;;;;;;21.73;9.90;;;;;;;2.48;81.82;101543.19;5054691;28;20453;-71
2024/03/02 05:19:32;;;;;;;19.17;9.43;;;;;;;2.47;81.77;101552.63;5054681;28;20481;-71
2024/03/02 05:21:59;;;;;;;24.43;11.57;;;;;;;2.48;81.74;101543.19;5054598;28;20923;-71
2024/03/02 05:24:28;;;;;;;16.47;9.33;;;;;;;2.48;81.72;101548.34;5054573;28;20431;-71
2024/03/02 05:26:55;;;;;;;16.87;10.20;;;;;;;2.46;81.95;101553.47;5054753;28;20433;-71
2024/03/02 05:29:22;;;;;;;19.47;10.00;;;;;;;2.45;81.71;101551.72;5054354;28;20449;-71
2024/03/02 05:31:50;;;;;;;16.73;9.70;;;;;;;2.41;82.00;101547.31;5054581;28;20453;-71
2024/03/02 05:34:18;;;;;;;18.70;10.40;;;;;;;2.46;81.61;101562.91;5054254;28;20430;-71
2024/03/02 05:36:45;;;;;;;19.60;8.87;;;;;;;2.43;81.67;101549.94;5054642;28;20792;-71
2024/03/02 05:39:12;;;;;;;17.03;8.87;;;;;;;2.35;81.83;101532.53;5054195;28;20488;-71
2024/03/02 05:41:39;;;;;;;17.93;9.40;;;;;;;2.44;81.85;101549.09;5054386;28;20462;-79
2024/03/02 05:44:06;;;;;;;20.73;10.07;;;;;;;2.43;82.00;101555.09;5054274;28;20438;-79
2024/03/02 05:46:32;;;;;;;16.97;8.90;;;;;;;2.43;82.04;101558.56;5054144;28;20497;-78
2024/03/02 05:49:01;;;;;;;21.70;9.37;;;;;;;2.44;81.63;101567.16;5054287;28;20451;-78
2024/03/02 05:51:28;;;;;;;21.57;9.40;;;;;;;2.43;81.96;101570.59;5054413;28;20505;-78
2024/03/02 05:53:55;;;;;;;20.03;10.50;;;;;;;2.43;81.82;101573.19;5054074;28;20451;-79
2024/03/02 05:56:22;;;;;;;16.83;10.27;;;;;;;2.41;81.82;101572.25;5054207;28;20468;-78
2024/03/02 05:59:00;;;;;;;17.40;8.90;;;;;;;2.41;81.70;101577.44;5054094;28;20478;-78
2024/03/02 06:01:29;;;;;;;17.20;9.93;;;;;;;2.42;81.88;101574.91;5053931;28;20455;-79
2024/03/02 06:03:56;;;;;;;21.43;10.23;;;;;;;2.43;82.03;101575.75;5053822;28;20438;-78
2024/03/02 06:06:25;;;;;;;18.87;9.50;;;;;;;2.44;82.13;101582.66;5053723;28;20527;-78
2024/03/02 06:08:52;;;;;;;20.47;9.67;;;;;;;2.43;81.74;101580.94;5053917;28;20474;-78
2024/03/02 06:11:20;;;;;;;19.20;10.40;;;;;;;2.42;81.89;101587.81;5053951;28;20987;-78
2024/03/02 06:13:47;;;;;;;15.77;6.87;;;;;;;2.43;81.75;101578.34;5053957;28;20436;-78
2024/03/02 06:16:14;;;;;;;23.97;9.40;;;;;;;2.43;82.20;101583.50;5053696;28;20445;-78
2024/03/02 06:18:41;;;;;;;21.57;11.00;;;;;;;2.43;82.41;101591.25;5053603;28;20476;-78
2024/03/02 06:21:08;;;;;;;18.20;9.37;;;;;;;2.40;82.35;101588.59;5053994;28;20474;-79
2024/03/02 06:23:36;;;;;;;20.27;10.23;;;;;;;2.43;82.44;101601.59;5053569;28;20443;-79
2024/03/02 06:26:03;;;;;;;23.27;10.97;;;;;;;2.44;82.72;101603.31;5053753;28;20954;-78
2024/03/02 06:28:30;;;;;;;23.50;10.83;;;;;;;2.43;82.64;101597.28;5053614;28;20459;-78
2024/03/02 06:30:57;;;;;;;20.70;10.07;;;;;;;2.42;82.61;101595.56;5053331;28;20446;-78
2024/03/02 06:33:24;;;;;;;18.77;9.97;;;;;;;2.45;83.13;101607.69;5053529;28;20436;-78
2024/03/02 06:35:51;;;;;;;20.63;11.13;;;;;;;2.38;83.16;101588.56;5053517;28;20482;-78
2024/03/02 06:38:18;;;;;;;20.80;12.07;;;;;;;2.46;83.13;101604.25;5053177;28;20928;-78
2024/03/02 06:40:46;;;;;;;20.33;11.30;;;;;;;2.47;83.27;101603.41;5053378;28;20968;-76
2024/03/02 06:43:13;;;;;;;19.77;10.80;;;;;;;2.48;83.23;101600.00;5052981;28;20439;-75
2024/03/02 06:45:40;;;;;;;20.20;10.03;;;;;;;2.49;83.46;101609.47;5053256;28;20431;-74
2024/03/02 06:48:07;;;;;;;18.40;9.20;;;;;;;2.50;83.43;101618.97;5053010;28;20440;-75
2024/03/02 06:50:34;;;;;;;20.10;9.23;;;;;;;2.51;83.18;101631.06;5053063;28;20435;-71
2024/03/02 06:53:04;;;;;;;16.93;10.30;;;;;;;2.53;83.26;101619.03;5052871;28;20443;-71
2024/03/02 06:55:31;;;;;;;22.33;9.67;;;;;;;2.54;83.31;101615.63;5052971;28;20466;-71
2024/03/02 06:57:59;;;;;;;18.13;9.70;;;;;;;2.56;83.23;101639.81;5052729;28;20445;-70
2024/03/02 07:00:26;;;;;;;20.37;9.77;;;;;;;2.54;83.08;101625.97;5052668;28;20476;-70
2024/03/02 07:02:52;;;;;;;16.83;9.17;;;;;;;2.58;83.30;101627.78;5052623;28;20453;-71
2024/03/02 07:05:21;;;;;;;17.10;8.87;;;;;;;2.57;83.47;101631.22;5052932;28;20435;-71
2024/03/02 07:07:47;;;;;;;15.47;8.27;;;;;;;2.59;82.77;101629.53;5052845;28;20446;-71
2024/03/02 07:10:14;;;;;;;14.17;7.17;;;;;;;2.62;83.15;101637.38;5052627;28;20448;-71
2024/03/02 07:12:41;;;;;;;17.77;8.70;;;;;;;2.64;83.29;101642.56;5052959;28;20439;-71
2024/03/02 07:15:36;;;;;;;16.57;9.20;;;;;;;2.66;83.04;101638.31;5052582;28;20439;-71
2024/03/02 07:18:05;;;;;;;18.30;8.80;;;;;;;2.67;83.03;101638.34;5052790;28;20449;-70
2024/03/02 07:20:31;;;;;;;13.63;7.53;;;;;;;2.69;82.95;101640.97;5052627;28;20481;-71
2024/03/02 07:22:58;;;;;;;16.93;8.77;;;;;;;2.68;82.96;101636.63;5052297;28;20441;-71
2024/03/02 07:25:25;;;;;;;18.10;8.67;;;;;;;2.72;82.97;101648.78;5052307;28;20446;-72
2024/03/02 07:27:52;;;;;;;15.03;8.07;;;;;;;2.72;82.81;101641.91;5052718;28;20434;-71
2024/03/02 07:30:21;;;;;;;13.10;7.30;;;;;;;2.74;82.92;101641.94;5052436;28;20449;-71
2024/03/02 07:32:51;;;;;;;17.87;8.00;;;;;;;2.75;82.82;101644.53;5052486;28;20451;-71
2024/03/02 07:35:18;;;;;;;15.17;8.17;;;;;;;2.76;82.59;101642.88;5052426;28;20440;-71
2024/03/02 07:37:45;;;;;;;14.30;8.40;;;;;;;2.72;82.52;101639.31;5052327;28;20525;-71
2024/03/02 07:40:13;;;;;;;16.73;8.03;;;;;;;2.77;82.72;101655.81;5052611;28;20489;-71
2024/03/02 07:42:41;;;;;;;12.40;6.07;;;;;;;2.76;82.36;101642.88;5052496;28;20435;-71
2024/03/02 07:45:08;;;;;;;15.47;7.97;;;;;;;2.80;82.49;101660.19;5052320;28;20441;-71
2024/03/02 07:47:36;;;;;;;16.63;8.93;;;;;;;2.81;82.55;101649.88;5052329;28;20604;-71
2024/03/02 07:50:06;;;;;;;10.20;4.70;;;;;;;2.82;82.44;101643.88;5052380;28;20447;-71
2024/03/02 07:52:33;;;;;;;14.67;7.27;;;;;;;2.83;82.39;101645.59;5052253;28;20925;-71
2024/03/02 07:55:00;;;;;;;15.63;8.77;;;;;;;2.85;82.54;101645.66;5052364;28;20543;-70
2024/03/02 07:57:27;;;;;;;14.77;7.40;;;;;;;2.87;82.70;101645.66;5052095;28;20434;-71
2024/03/02 07:59:54;;;;;;;15.07;7.60;;;;;;;2.88;82.44;101653.47;5052096;28;20495;-71
2024/03/02 08:02:21;;;;;;;16.33;6.80;;;;;;;2.88;82.33;101656.06;5052325;28;20934;-71
2024/03/02 08:04:50;;;;;;;17.13;9.20;;;;;;;2.89;82.48;101656.94;5052142;28;20477;-71
2024/03/02 08:07:17;;;;;;;14.17;7.73;;;;;;;2.92;82.27;101664.75;5052103;28;20444;-71
2024/03/02 08:09:44;;;;;;;15.70;7.87;;;;;;;2.92;82.30;101660.44;5052104;28;20455;-70
2024/03/02 08:12:11;;;;;;;11.57;6.47;;;;;;;2.93;82.29;101662.22;5052099;28;20428;-71
2024/03/02 08:14:37;;;;;;;13.17;7.60;;;;;;;2.94;82.48;101658.78;5052192;28;20451;-70
2024/03/02 08:17:09;;;;;;;15.37;7.77;;;;;;;2.96;82.30;101664.00;5051987;28;20438;-71
2024/03/02 08:19:36;;;;;;;13.07;6.87;;;;;;;2.96;82.31;101657.09;5051928;28;20479;-70
2024/03/02 08:22:04;;;;;;;15.27;6.57;;;;;;;2.99;82.22;101664.94;5052016;28;20439;-70
2024/03/02 08:24:31;;;;;;;14.10;6.40;;;;;;;3.00;82.11;101658.91;5052277;28;20960;-71
2024/03/02 08:26:59;;;;;;;15.97;7.40;;;;;;;3.03;82.19;101663.28;5051968;28;20440;-71
2024/03/02 08:29:26;;;;;;;14.17;7.57;;;;;;;3.03;82.13;101674.50;5051972;28;21031;-71
2024/03/02 08:31:53;;;;;;;12.93;7.13;;;;;;;3.06;82.09;101673.69;5052049;28;20454;-71
2024/03/02 08:34:20;;;;;;;11.93;5.93;;;;;;;3.08;82.01;101668.56;5051881;28;20432;-70
2024/03/02 08:36:47;;;;;;;14.07;7.27;;;;;;;3.09;82.04;101666.00;5054440;28;20447;-70
2024/03/02 08:39:16;;;;;;;10.40;6.23;;;;;;;3.10;81.94;101670.34;5055302;28;20539;-71
2024/03/02 08:41:43;;;;;;;12.50;6.57;;;;;;;3.13;81.77;101664.38;5055630;28;20423;-71
2024/03/02 08:44:10;;;;;;;13.67;6.93;;;;;;;3.13;81.74;101664.38;5055161;28;20439;-71
2024/03/02 08:46:37;;;;;;;10.97;5.80;;;;;;;3.12;81.81;101653.13;5055322;28;20440;-70
2024/03/02 08:49:05;;;;;;;13.80;7.50;;;;;;;3.15;81.70;101657.50;5055195;28;20437;-71
2024/03/02 08:51:32;;;;;;;16.13;6.77;;;;;;;3.14;81.65;101666.97;5055392;28;20451;-71
2024/03/02 08:54:00;;;;;;;16.07;7.33;;;;;;;3.15;81.67;101660.97;5055455;28;20436;-70
2024/03/02 08:56:28;;;;;;;11.67;6.90;;;;;;;3.17;81.76;101656.69;5055304;28;20530;-71
2024/03/02 08:58:55;;;;;;;13.03;6.77;;;;;;;3.17;81.56;101656.69;5054980;28;20442;-70
2024/03/02 09:01:22;;;;;;;13.00;8.07;;;;;;;3.18;81.59;101653.28;5046161;28;20442;-71
2024/03/02 09:03:50;;;;;;;13.27;8.80;;;;;;;3.19;81.59;101652.44;5035122;28;20445;-70
2024/03/02 09:06:17;;;;;;;13.30;7.37;;;;;;;3.19;81.43;101662.78;5034836;28;20925;-71
2024/03/02 09:08:45;;;;;;;10.30;6.13;;;;;;;3.19;81.49;101665.38;5035115;28;20500;-71
2024/03/02 09:11:12;;;;;;;3.17;1.73;;;;;;;3.19;81.48;101667.97;5035195;28;20449;-71
2024/03/02 09:13:42;;;;;;;11.37;7.77;;;;;;;3.21;81.62;101663.72;5035068;28;20917;-71
2024/03/02 09:16:10;;;;;;;14.43;8.07;;;;;;;3.21;81.62;101666.28;5034758;28;20446;-71
2024/03/02 09:18:38;;;;;;;13.97;7.03;;;;;;;3.21;81.54;101666.28;5034811;28;20521;-70
2024/03/02 09:21:05;;;;;;;18.27;8.20;;;;;;;3.24;81.51;101662.88;5034568;28;20487;-71
2024/03/02 09:23:32;;;;;;;11.87;7.53;;;;;;;3.23;81.52;101662.00;5034696;28;20464;-71
2024/03/02 09:25:59;;;;;;;14.57;6.60;;;;;;;3.25;81.60;101657.75;5034603;28;20500;-71
2024/03/02 09:28:26;;;;;;;11.50;6.70;;;;;;;3.26;81.54;101656.03;5034662;28;20814;-71
2024/03/02 09:30:54;;;;;;;14.23;7.17;;;;;;;3.27;81.56;101650.91;5034502;28;20437;-71
2024/03/02 09:33:21;;;;;;;19.00;8.43;;;;;;;3.29;81.49;101662.13;5034454;28;20525;-71
2024/03/02 09:35:49;;;;;;;15.70;8.10;;;;;;;3.32;81.48;101655.28;5034321;28;20499;-71
2024/03/02 09:38:16;;;;;;;15.60;8.53;;;;;;;3.34;81.66;101658.78;5034301;28;20930;-71
2024/03/02 09:40:43;;;;;;;18.13;8.17;;;;;;;3.35;81.63;101658.81;5034195;28;20487;-71
2024/03/02 09:43:11;;;;;;;11.60;6.37;;;;;;;3.37;81.50;101653.69;5034671;28;20468;-71
2024/03/02 09:45:38;;;;;;;15.83;8.93;;;;;;;3.38;81.48;101666.63;5034122;28;20453;-71
2024/03/02 09:48:07;;;;;;;15.23;7.60;;;;;;;3.41;81.60;101665.81;5033576;28;20430;-70
2024/03/02 09:50:34;;;;;;;17.20;8.83;;;;;;;3.42;81.41;101673.63;5034083;28;20439;-71
2024/03/02 09:53:01;;;;;;;14.83;7.97;;;;;;;3.45;81.34;101665.06;5034271;28;20500;-71
2024/03/02 09:55:28;;;;;;;15.10;7.43;;;;;;;3.48;81.26;101670.28;5033914;28;20472;-71
2024/03/02 09:57:55;;;;;;;12.50;7.10;;;;;;;3.49;81.32;101672.03;5034065;28;20452;-70
2024/03/02 10:00:22;;;;;;;13.17;7.90;;;;;;;3.51;81.19;101672.94;5033903;28;20475;-71
2024/03/02 10:02:49;;;;;;;13.03;8.47;;;;;;;3.53;81.29;101671.28;5033830;28;20961;-71
2024/03/02 10:05:28;;;;;;;13.37;6.60;;;;;;;3.55;80.82;101669.56;5033981;28;20441;-71
2024/03/02 10:08:04;;;;;;;15.87;9.07;;;;;;;3.56;81.13;101676.50;5033763;28;20460;-71
2024/03/02 10:10:39;;;;;;;12.57;6.93;;;;;;;3.58;80.91;101677.44;5033794;28;20816;-71
2024/03/02 10:13:09;;;;;;;12.20;7.60;;;;;;;3.60;80.93;101673.13;5033672;28;20440;-75
2024/03/02 10:15:37;;;;;;;14.60;8.30;;;;;;;3.58;80.92;101663.59;5033805;28;20440;-75
2024/03/02 10:18:05;;;;;;;13.90;8.03;;;;;;;3.63;80.68;101678.38;5033684;28;20446;-75
2024/03/02 10:20:33;;;;;;;14.30;7.77;;;;;;;3.64;80.49;101674.94;5033549;28;20488;-75
2024/03/02 10:23:16;;;;;;;11.80;6.57;;;;;;;3.65;80.51;101675.81;5033950;28;20439;-79
2024/03/02 10:25:43;;;;;;;10.70;6.97;;;;;;;3.64;80.60;101669.78;5031951;28;20970;-79
2024/03/02 10:28:10;;;;;;;12.03;7.37;;;;;;;3.65;80.33;101670.66;5033717;28;20523;-80
2024/03/02 10:30:38;;;;;;;18.67;9.10;;;;;;;3.63;80.03;101669.72;5033872;28;20445;-80
2024/03/02 10:33:06;;;;;;;12.87;7.37;;;;;;;3.63;80.23;101672.31;5033599;28;20958;-79
2024/03/02 10:35:37;;;;;;;11.67;8.03;;;;;;;3.62;79.87;101674.03;5033579;28;20438;-79
2024/03/02 10:38:06;;;;;;;13.27;7.23;;;;;;;3.62;80.14;101671.44;5034002;28;20450;-79
2024/03/02 10:40:33;;;;;;;14.23;8.33;;;;;;;3.63;80.08;101667.16;5033563;28;20482;-79
2024/03/02 10:43:02;;;;;;;14.43;8.33;;;;;;;3.62;80.08;101668.88;5033727;28;20495;-79
2024/03/02 10:45:30;;;;;;;12.90;7.27;;;;;;;3.62;80.03;101671.44;5033636;28;20450;-80
2024/03/02 10:47:57;;;;;;;10.30;6.23;;;;;;;3.62;79.91;101668.88;5033875;28;20449;-79
2024/03/02 10:50:25;;;;;;;15.07;8.37;;;;;;;3.63;79.91;101667.16;5033445;28;20446;-79
2024/03/02 10:52:54;;;;;;;11.67;7.63;;;;;;;3.62;79.77;101668.88;5033471;28;20449;-79
2024/03/02 10:55:21;;;;;;;13.87;7.87;;;;;;;3.62;79.72;101671.44;5033153;28;20471;-80
2024/03/02 10:57:53;;;;;;;10.83;6.03;;;;;;;3.62;79.69;101668.00;5032761;28;20950;-79
2024/03/02 11:00:24;;;;;;;12.03;6.30;;;;;;;3.62;79.70;101668.88;4979263;28;20475;-79
2024/03/02 11:02:53;;;;;;;13.93;7.90;;;;;;;3.62;79.79;101666.28;5045991;28;20499;-79
2024/03/02 11:05:27;;;;;;;11.67;6.63;;;;;;;3.63;79.60;101672.31;5031302;28;20435;-80
2024/03/02 11:08:02;;;;;;;10.97;6.60;;;;;;;3.62;79.89;101676.63;5031094;28;20487;-79
2024/03/02 11:10:35;;;;;;;12.20;7.00;;;;;;;3.63;79.77;101668.00;5031010;28;20455;-80
2024/03/02 11:13:06;;;;;;;11.90;6.93;;;;;;;3.61;79.69;101668.81;5031314;28;20433;-79
2024/03/02 11:15:36;;;;;;;14.40;7.60;;;;;;;3.62;79.59;101676.63;5031179;28;21012;-79
2024/03/02 11:18:08;;;;;;;11.47;7.00;;;;;;;3.61;79.77;101664.53;5031022;28;20506;-79
2024/03/02 11:20:38;;;;;;;8.40;4.87;;;;;;;3.60;79.59;101662.78;5031206;28;20512;-79
2024/03/02 11:23:08;;;;;;;3.93;2.47;;;;;;;3.60;79.52;101667.94;5031085;28;20845;-79
2024/03/02 11:25:36;;;;;;;12.00;6.40;;;;;;;3.59;79.58;101661.03;5030935;28;20497;-80
2024/03/02 11:28:04;;;;;;;9.87;4.93;;;;;;;3.59;79.69;101663.63;5030925;28;20434;-78